createdAt,value
2019-04-07T00:02:09.756Z,93719.27
2019-04-07T00:04:39.875Z,93712.95
2019-04-07T00:07:10.308Z,93707.91
2019-04-07T00:09:40.337Z,93714.37
2019-04-07T00:12:10.420Z,93712.33
2019-04-07T00:14:42.489Z,93715.45
2019-04-07T00:17:12.488Z,93710.78
2019-04-07T00:19:42.323Z,93713.22
2019-04-07T00:22:12.736Z,93712.71
2019-04-07T00:24:43.183Z,93713.67
2019-04-07T00:27:13.165Z,93710.80
2019-04-07T00:29:43.085Z,93707.19
2019-04-07T00:32:12.997Z,93707.66
2019-04-07T00:34:42.987Z,93709.44
2019-04-07T00:37:13.031Z,93706.76
2019-04-07T00:39:43.456Z,93704.63
2019-04-07T00:42:13.567Z,93703.67
2019-04-07T00:44:43.475Z,93708.25
2019-04-07T00:47:14.428Z,93709.75
2019-04-07T00:49:44.392Z,93716.31
2019-04-07T00:52:16.253Z,93711.76
2019-04-07T00:54:46.141Z,93715.23
2019-04-07T00:57:16.401Z,93719.94
2019-04-07T00:59:46.314Z,93720.08
2019-04-07T01:02:16.930Z,93717.21
2019-04-07T01:04:47.269Z,93709.36
2019-04-07T01:07:17.250Z,93714.66
2019-04-07T01:09:47.316Z,93714.29
2019-04-07T01:12:18.254Z,93712.78
2019-04-07T01:14:48.971Z,93715.81
2019-04-07T01:17:19.133Z,93715.43
2019-04-07T01:19:49.680Z,93710.31
2019-04-07T01:22:19.636Z,93718.30
2019-04-07T01:24:49.597Z,93715.56
2019-04-07T01:27:19.574Z,93713.34
2019-04-07T01:29:49.466Z,93714.06
2019-04-07T01:32:19.294Z,93713.31
2019-04-07T01:34:49.406Z,93711.36
2019-04-07T01:37:19.745Z,93723.88
2019-04-07T01:39:50.098Z,93718.58
2019-04-07T01:42:26.155Z,93717.98
2019-04-07T01:45:31.139Z,93710.19
2019-04-07T01:48:08.806Z,93709.91
2019-04-07T01:50:46.985Z,93720.59
2019-04-07T01:53:35.805Z,93719.39
2019-04-07T01:56:23.441Z,93719.61
2019-04-07T01:59:07.618Z,93717.70
2019-04-07T02:01:55.753Z,93716.53
2019-04-07T02:04:40.852Z,93724.88
2019-04-07T02:07:27.207Z,93726.16
2019-04-07T02:10:30.672Z,93731.99
2019-04-07T02:13:39.334Z,93723.08
2019-04-07T02:16:18.242Z,93718.70
2019-04-07T02:19:00.984Z,93724.55
2019-04-07T02:21:46.550Z,93719.86
2019-04-07T02:24:20.988Z,93725.00
2019-04-07T02:27:28.414Z,93722.62
2019-04-07T02:30:21.860Z,93716.23
2019-04-07T02:33:02.156Z,93711.97
2019-04-07T02:36:20.725Z,93712.16
2019-04-07T02:38:56.909Z,93714.94
2019-04-07T02:41:36.451Z,93718.64
2019-04-07T02:44:25.213Z,93715.33
2019-04-07T02:47:16.012Z,93721.11
2019-04-07T02:50:10.749Z,93724.41
2019-04-07T02:53:05.791Z,93727.16
2019-04-07T02:55:42.420Z,93729.23
2019-04-07T02:58:50.089Z,93740.52
2019-04-07T03:01:37.518Z,93732.27
2019-04-07T03:04:17.867Z,93736.33
2019-04-07T03:06:56.824Z,93737.61
2019-04-07T03:09:44.759Z,93735.68
2019-04-07T03:12:30.700Z,93725.95
2019-04-07T03:15:16.083Z,93729.44
2019-04-07T03:18:12.593Z,93733.73
2019-04-07T03:21:02.415Z,93740.38
2019-04-07T03:23:49.698Z,93739.98
2019-04-07T03:26:37.756Z,93747.28
2019-04-07T03:29:18.204Z,93748.46
2019-04-07T03:32:10.264Z,93742.65
2019-04-07T03:34:46.807Z,93744.95
2019-04-07T03:37:39.774Z,93732.06
2019-04-07T03:40:20.908Z,93736.50
2019-04-07T03:43:13.439Z,93737.45
2019-04-07T03:45:50.015Z,93745.27
2019-04-07T03:48:28.367Z,93747.72
2019-04-07T03:51:04.909Z,93752.51
2019-04-07T03:53:42.794Z,93750.63
2019-04-07T03:56:20.259Z,93753.36
2019-04-07T03:58:58.004Z,93754.56
2019-04-07T04:01:45.951Z,93747.59
2019-04-07T04:04:32.502Z,93754.73
2019-04-07T04:07:20.135Z,93753.92
2019-04-07T04:10:03.226Z,93762.41
2019-04-07T04:12:39.832Z,93755.20
2019-04-07T04:15:18.261Z,93758.31
2019-04-07T04:17:48.312Z,93753.33
2019-04-07T04:20:18.340Z,93749.52
2019-04-07T04:22:48.557Z,93761.71
2019-04-07T04:25:21.434Z,93761.51
2019-04-07T04:27:51.465Z,93761.23
2019-04-07T04:30:21.449Z,93757.90
2019-04-07T04:32:52.146Z,93765.16
2019-04-07T04:35:22.443Z,93761.89
2019-04-07T04:37:53.969Z,93767.85
2019-04-07T04:40:24.277Z,93766.64
2019-04-07T04:42:55.045Z,93770.27
2019-04-07T04:45:25.073Z,93769.49
2019-04-07T04:47:56.082Z,93769.13
2019-04-07T04:50:26.163Z,93777.78
2019-04-07T04:52:56.429Z,93776.67
2019-04-07T04:55:26.374Z,93783.30
2019-04-07T04:57:56.612Z,93790.97
2019-04-07T05:00:28.492Z,93795.76
2019-04-07T05:02:59.327Z,93799.55
2019-04-07T05:05:29.265Z,93814.13
2019-04-07T05:08:03.637Z,93813.13
2019-04-07T05:10:31.027Z,93821.66
2019-04-07T05:13:01.583Z,93814.77
2019-04-07T05:15:32.546Z,93816.46
2019-04-07T05:18:02.697Z,93821.99
2019-04-07T05:20:33.161Z,93827.76
2019-04-07T05:23:03.080Z,93833.90
2019-04-07T05:25:33.665Z,93825.44
2019-04-07T05:28:03.815Z,93815.53
2019-04-07T05:30:33.726Z,93815.97
2019-04-07T05:33:04.559Z,93811.84
2019-04-07T05:35:35.084Z,93815.12
2019-04-07T05:38:06.742Z,93814.78
2019-04-07T05:40:36.753Z,93819.30
2019-04-07T05:43:07.166Z,93814.84
2019-04-07T05:45:37.679Z,93815.27
2019-04-07T05:48:08.267Z,93809.38
2019-04-07T05:50:38.631Z,93811.27
2019-04-07T05:53:12.635Z,93811.83
2019-04-07T05:55:40.271Z,93812.36
2019-04-07T05:58:10.605Z,93817.72
2019-04-07T06:00:41.591Z,93819.61
2019-04-07T06:03:12.170Z,93826.02
2019-04-07T06:05:41.994Z,93824.97
2019-04-07T06:08:22.607Z,93820.15
2019-04-07T06:10:43.707Z,93826.93
2019-04-07T06:13:14.721Z,93831.18
2019-04-07T06:15:45.759Z,93825.48
2019-04-07T06:18:15.791Z,93831.38
2019-04-07T06:20:46.655Z,93830.27
2019-04-07T06:23:17.008Z,93835.27
2019-04-07T06:25:47.591Z,93831.92
2019-04-07T06:28:19.108Z,93828.55
2019-04-07T06:30:49.524Z,93824.02
2019-04-07T06:33:19.945Z,93818.72
2019-04-07T06:35:53.919Z,93823.40
2019-04-07T06:38:31.110Z,93831.75
2019-04-07T06:40:57.119Z,93836.51
2019-04-07T06:43:25.851Z,93834.42
2019-04-07T06:46:03.849Z,93826.95
2019-04-07T06:48:38.019Z,93833.14
2019-04-07T06:51:13.990Z,93834.47
2019-04-07T06:53:55.712Z,93838.52
2019-04-07T06:56:33.418Z,93838.71
2019-04-07T06:59:27.317Z,93846.52
2019-04-07T07:02:22.559Z,93844.64
2019-04-07T07:05:06.840Z,93846.73
2019-04-07T07:07:48.323Z,93852.53
2019-04-07T07:10:37.013Z,93852.44
2019-04-07T07:13:30.739Z,93863.96
2019-04-07T07:16:15.737Z,93851.18
2019-04-07T07:19:06.396Z,93849.91
2019-04-07T07:21:54.048Z,93849.29
2019-04-07T07:24:25.680Z,93846.25
2019-04-07T07:26:57.693Z,93852.67
2019-04-07T07:29:27.093Z,93854.16
2019-04-07T07:32:01.913Z,93850.56
2019-04-07T07:34:28.534Z,93859.68
2019-04-07T07:36:58.983Z,93861.94
2019-04-07T07:39:30.544Z,93860.00
2019-04-07T07:42:00.565Z,93859.91
2019-04-07T07:44:31.241Z,93861.09
2019-04-07T07:47:02.665Z,93862.64
2019-04-07T07:49:36.886Z,93863.09
2019-04-07T07:52:06.046Z,93872.06
2019-04-07T07:54:37.232Z,93873.61
2019-04-07T07:57:07.980Z,93873.16
2019-04-07T07:59:39.338Z,93861.12
2019-04-07T08:02:09.830Z,93872.52
2019-04-07T08:04:39.950Z,93877.55
2019-04-07T08:07:13.452Z,93876.45
2019-04-07T08:09:42.126Z,93890.51
2019-04-07T08:12:12.694Z,93891.39
2019-04-07T08:14:42.715Z,93890.07
2019-04-07T08:17:12.531Z,93898.42
2019-04-07T08:19:44.330Z,93898.60
2019-04-07T08:22:25.325Z,93905.92
2019-04-07T08:24:47.642Z,93913.30
2019-04-07T08:27:17.148Z,93896.53
2019-04-07T08:29:47.429Z,93898.86
2019-04-07T08:32:17.645Z,93906.00
2019-04-07T08:34:47.510Z,93904.09
2019-04-07T08:37:17.937Z,93909.08
2019-04-07T08:39:48.595Z,93905.95
2019-04-07T08:42:19.721Z,93910.61
2019-04-07T08:44:49.940Z,93907.47
2019-04-07T08:47:22.299Z,93906.58
2019-04-07T08:49:55.423Z,93904.09
2019-04-07T08:52:23.469Z,93902.25
2019-04-07T08:54:53.549Z,93906.73
2019-04-07T08:57:27.249Z,93904.31
2019-04-07T08:59:55.114Z,93912.61
2019-04-07T09:02:26.870Z,93911.05
2019-04-07T09:04:56.949Z,93918.57
2019-04-07T09:07:27.646Z,93917.69
2019-04-07T09:09:57.861Z,93918.47
2019-04-07T09:12:30.921Z,93915.69
2019-04-07T09:15:02.838Z,93930.16
2019-04-07T09:17:50.344Z,93927.08
2019-04-07T09:20:48.398Z,93919.39
2019-04-07T09:23:26.357Z,93910.65
2019-04-07T09:26:28.679Z,93914.11
2019-04-07T09:29:08.375Z,93929.97
2019-04-07T09:32:00.504Z,93924.92
2019-04-07T09:34:52.259Z,93923.98
2019-04-07T09:37:44.858Z,93921.53
2019-04-07T09:40:21.473Z,93927.13
2019-04-07T09:43:18.041Z,93927.55
2019-04-07T09:46:03.557Z,93920.66
2019-04-07T09:48:58.778Z,93921.47
2019-04-07T09:51:41.526Z,93922.95
2019-04-07T09:54:20.524Z,93928.23
2019-04-07T09:57:19.121Z,93926.95
2019-04-07T10:00:14.471Z,93932.01
2019-04-07T10:03:12.959Z,93938.25
2019-04-07T10:06:00.813Z,93931.53
2019-04-07T10:08:39.311Z,93928.70
2019-04-07T10:11:37.447Z,93936.66
2019-04-07T10:14:18.571Z,93935.37
2019-04-07T10:16:54.631Z,93937.03
2019-04-07T10:19:58.834Z,93937.80
2019-04-07T10:22:44.112Z,93931.38
2019-04-07T10:25:36.596Z,93933.53
2019-04-07T10:28:27.685Z,93937.21
2019-04-07T10:31:23.553Z,93933.23
2019-04-07T10:34:00.050Z,93932.27
2019-04-07T10:36:42.324Z,93942.76
2019-04-07T10:39:49.749Z,93936.92
2019-04-07T10:42:38.825Z,93934.99
2019-04-07T10:45:26.307Z,93926.13
2019-04-07T10:48:15.452Z,93934.59
2019-04-07T10:51:03.302Z,93932.17
2019-04-07T10:53:48.286Z,93926.98
2019-04-07T10:56:31.991Z,93935.24
2019-04-07T10:59:19.961Z,93935.94
2019-04-07T11:02:08.352Z,93940.93
2019-04-07T11:04:56.398Z,93932.66
2019-04-07T11:07:42.377Z,93926.19
2019-04-07T11:10:34.616Z,93919.93
2019-04-07T11:13:18.633Z,93930.39
2019-04-07T11:16:06.594Z,93929.02
2019-04-07T11:18:56.550Z,93928.77
2019-04-07T11:21:45.478Z,93926.37
2019-04-07T11:24:38.117Z,93928.52
2019-04-07T11:27:15.045Z,93924.63
2019-04-07T11:29:54.979Z,93935.01
2019-04-07T11:32:32.781Z,93932.39
2019-04-07T11:35:13.753Z,93943.97
2019-04-07T11:37:49.617Z,93938.41
2019-04-07T11:40:42.507Z,93927.73
2019-04-07T11:43:28.049Z,93938.09
2019-04-07T11:46:14.047Z,93934.08
2019-04-07T11:49:02.783Z,93938.23
2019-04-07T11:51:50.521Z,93937.45
2019-04-07T11:54:42.656Z,93936.02
2019-04-07T11:57:34.190Z,93930.00
2019-04-07T12:00:33.414Z,93935.64
2019-04-07T12:03:26.032Z,93926.93
2019-04-07T12:06:14.346Z,93921.13
2019-04-07T12:08:56.477Z,93922.91
2019-04-07T12:11:48.397Z,93928.25
2019-04-07T12:14:27.546Z,93931.55
2019-04-07T12:17:15.365Z,93927.66
2019-04-07T12:19:55.963Z,93925.33
2019-04-07T12:22:41.720Z,93922.70
2019-04-07T12:25:33.559Z,93919.34
2019-04-07T12:28:28.892Z,93917.34
2019-04-07T12:31:07.549Z,93914.19
2019-04-07T12:33:46.398Z,93918.59
2019-04-07T12:36:35.471Z,93922.17
2019-04-07T12:39:34.148Z,93920.70
2019-04-07T12:42:11.344Z,93910.44
2019-04-07T12:44:52.851Z,93920.68
2019-04-07T12:47:41.871Z,93916.25
2019-04-07T12:50:35.641Z,93915.07
2019-04-07T12:53:34.439Z,93916.99
2019-04-07T12:56:13.477Z,93912.13
2019-04-07T12:59:05.356Z,93913.75
2019-04-07T13:01:48.468Z,93908.55
2019-04-07T13:04:44.610Z,93902.78
2019-04-07T13:07:32.575Z,93896.64
2019-04-07T13:10:10.807Z,93888.09
2019-04-07T13:13:07.991Z,93888.09
2019-04-07T13:16:01.455Z,93887.02
2019-04-07T13:18:50.016Z,93890.39
2019-04-07T13:21:25.106Z,93886.85
2019-04-07T13:24:07.043Z,93886.28
2019-04-07T13:26:45.612Z,93883.95
2019-04-07T13:29:34.526Z,93884.77
2019-04-07T13:32:14.935Z,93879.20
2019-04-07T13:34:56.325Z,93888.07
2019-04-07T13:37:35.902Z,93888.51
2019-04-07T13:40:24.201Z,93884.12
2019-04-07T13:43:13.417Z,93890.20
2019-04-07T13:46:17.087Z,93896.94
2019-04-07T13:49:02.768Z,93895.04
2019-04-07T13:51:44.819Z,93891.20
2019-04-07T13:54:21.156Z,93893.86
2019-04-07T13:57:07.322Z,93894.06
2019-04-07T14:00:02.119Z,93898.13
2019-04-07T14:02:55.999Z,93888.59
2019-04-07T14:05:43.640Z,93899.66
2019-04-07T14:08:31.010Z,93897.77
2019-04-07T14:11:27.354Z,93901.48
2019-04-07T14:14:16.772Z,93895.36
2019-04-07T14:17:06.257Z,93910.77
2019-04-07T14:20:01.358Z,93900.48
2019-04-07T14:22:50.529Z,93894.09
2019-04-07T14:25:41.904Z,93898.05
2019-04-07T14:28:23.457Z,93904.67
2019-04-07T14:31:11.650Z,93908.72
2019-04-07T14:33:59.242Z,93901.69
2019-04-07T14:36:55.201Z,93915.80
2019-04-07T14:39:47.673Z,93905.87
2019-04-07T14:42:39.608Z,93901.03
2019-04-07T14:45:32.066Z,93906.16
2019-04-07T14:48:14.713Z,93913.06
2019-04-07T14:50:58.134Z,93901.59
2019-04-07T14:53:40.850Z,93898.63
2019-04-07T14:56:20.522Z,93896.81
2019-04-07T14:59:15.359Z,93902.16
2019-04-07T15:01:53.703Z,93891.95
2019-04-07T15:04:29.127Z,93899.14
2019-04-07T15:07:11.617Z,93890.34
2019-04-07T15:09:49.059Z,93904.60
2019-04-07T15:12:28.498Z,93897.02
2019-04-07T15:14:58.943Z,93897.20
2019-04-07T15:17:29.406Z,93899.92
2019-04-07T15:19:59.389Z,93904.33
2019-04-07T15:22:30.836Z,93904.97
2019-04-07T15:25:01.448Z,93896.92
2019-04-07T15:27:31.623Z,93904.09
2019-04-07T15:30:02.367Z,93905.22
2019-04-07T15:32:35.641Z,93908.70
2019-04-07T15:35:06.282Z,93905.73
2019-04-07T15:37:39.514Z,93907.67
2019-04-07T15:40:09.036Z,93910.51
2019-04-07T15:42:42.900Z,93904.37
2019-04-07T15:45:12.254Z,93904.31
2019-04-07T15:47:42.565Z,93902.35
2019-04-07T15:50:12.636Z,93916.83
2019-04-07T15:52:45.939Z,93910.03
2019-04-07T15:55:14.764Z,93913.45
2019-04-07T15:57:44.744Z,93916.48
2019-04-07T16:00:16.429Z,93918.34
2019-04-07T16:02:49.008Z,93917.67
2019-04-07T16:05:18.220Z,93918.20
2019-04-07T16:07:48.160Z,93917.11
2019-04-07T16:10:21.292Z,93918.83
2019-04-07T16:12:52.469Z,93923.77
2019-04-07T16:15:23.097Z,93929.97
2019-04-07T16:17:53.038Z,93929.70
2019-04-07T16:20:26.266Z,93929.52
2019-04-07T16:22:55.508Z,93933.63
2019-04-07T16:25:27.869Z,93934.84
2019-04-07T16:27:57.419Z,93927.48
2019-04-07T16:30:27.343Z,93934.31
2019-04-07T16:33:01.898Z,93944.18
2019-04-07T16:35:29.839Z,93932.79
2019-04-07T16:38:01.534Z,93938.00
2019-04-07T16:40:31.769Z,93948.25
2019-04-07T16:43:11.721Z,93942.27
2019-04-07T16:45:33.937Z,93947.27
2019-04-07T16:48:05.441Z,93952.05
2019-04-07T16:50:35.417Z,93958.52
2019-04-07T16:53:07.650Z,93955.48
2019-04-07T16:55:40.392Z,93965.91
2019-04-07T16:58:11.822Z,93960.48
2019-04-07T17:00:41.942Z,93962.92
2019-04-07T17:03:11.981Z,93968.45
2019-04-07T17:05:42.957Z,93963.02
2019-04-07T17:08:17.655Z,93956.07
2019-04-07T17:10:45.408Z,93955.06
2019-04-07T17:13:20.503Z,93956.59
2019-04-07T17:15:50.779Z,93959.98
2019-04-07T17:18:39.051Z,93959.28
2019-04-07T17:21:14.018Z,93962.39
2019-04-07T17:23:43.478Z,93968.62
2019-04-07T17:26:13.826Z,93972.77
2019-04-07T17:28:46.196Z,93982.06
2019-04-07T17:31:15.917Z,93974.58
2019-04-07T17:33:46.936Z,93973.02
2019-04-07T17:36:20.130Z,93975.08
2019-04-07T17:38:58.602Z,93982.84
2019-04-07T17:41:29.085Z,93978.70
2019-04-07T17:44:23.410Z,93983.11
2019-04-07T17:47:18.639Z,93985.97
2019-04-07T17:50:10.686Z,93990.08
2019-04-07T17:53:14.932Z,93991.61
2019-04-07T17:56:01.305Z,93995.50
2019-04-07T17:58:59.847Z,93999.12
2019-04-07T18:02:00.399Z,94007.67
2019-04-07T18:04:53.809Z,94010.76
2019-04-07T18:07:52.067Z,94007.91
2019-04-07T18:10:39.693Z,94017.50
2019-04-07T18:13:39.521Z,94020.59
2019-04-07T18:16:12.241Z,94025.52
2019-04-07T18:18:58.325Z,94031.45
2019-04-07T18:21:48.731Z,94036.89
2019-04-07T18:24:31.717Z,94036.38
2019-04-07T18:27:23.940Z,94038.16
2019-04-07T18:30:14.504Z,94037.14
2019-04-07T18:32:58.630Z,94039.99
2019-04-07T18:35:52.215Z,94038.94
2019-04-07T18:38:53.658Z,94039.19
2019-04-07T18:41:47.923Z,94049.00
2019-04-07T18:44:25.396Z,94045.11
2019-04-07T18:47:20.889Z,94048.22
2019-04-07T18:50:07.643Z,94052.55
2019-04-07T18:52:47.541Z,94059.27
2019-04-07T18:55:45.103Z,94063.91
2019-04-07T18:58:50.021Z,94073.02
2019-04-07T19:01:52.458Z,94074.88
2019-04-07T19:04:34.733Z,94073.87
2019-04-07T19:07:27.186Z,94074.86
2019-04-07T19:10:10.590Z,94082.12
2019-04-07T19:12:43.787Z,94094.48
2019-04-07T19:15:37.123Z,94100.42
2019-04-07T19:18:14.341Z,94106.91
2019-04-07T19:21:09.769Z,94097.61
2019-04-07T19:24:10.732Z,94090.10
2019-04-07T19:27:12.017Z,94093.69
2019-04-07T19:29:43.138Z,94103.00
2019-04-07T19:32:40.238Z,94115.93
2019-04-07T19:35:23.890Z,94116.82
2019-04-07T19:38:05.360Z,94115.03
2019-04-07T19:41:00.209Z,94125.84
2019-04-07T19:43:48.036Z,94134.10
2019-04-07T19:46:46.105Z,94136.67
2019-04-07T19:49:53.563Z,94138.05
2019-04-07T19:52:45.278Z,94139.78
2019-04-07T19:55:40.981Z,94128.84
2019-04-07T19:58:37.252Z,94133.87
2019-04-07T20:01:29.527Z,94138.95
2019-04-07T20:04:12.948Z,94143.50
2019-04-07T20:06:56.114Z,94150.34
2019-04-07T20:09:45.844Z,94141.42
2019-04-07T20:12:27.403Z,94160.90
2019-04-07T20:15:17.920Z,94150.38
2019-04-07T20:18:10.477Z,94145.53
2019-04-07T20:20:46.629Z,94138.27
2019-04-07T20:23:36.011Z,94149.38
2019-04-07T20:26:24.142Z,94148.64
2019-04-07T20:29:11.755Z,94152.34
2019-04-07T20:31:53.475Z,94154.41
2019-04-07T20:34:52.637Z,94154.44
2019-04-07T20:37:41.165Z,94151.27
2019-04-07T20:40:29.543Z,94159.84
2019-04-07T20:43:28.450Z,94159.35
2019-04-07T20:46:36.004Z,94155.67
2019-04-07T20:49:34.296Z,94164.15
2019-04-07T20:52:41.269Z,94170.02
2019-04-07T20:55:30.952Z,94170.00
2019-04-07T20:58:43.809Z,94175.26
2019-04-07T21:01:25.532Z,94183.28
2019-04-07T21:04:04.615Z,94174.33
2019-04-07T21:06:53.972Z,94176.56
2019-04-07T21:09:34.058Z,94175.81
2019-04-07T21:12:33.973Z,94177.23
2019-04-07T21:15:27.491Z,94170.63
2019-04-07T21:18:12.677Z,94175.91
2019-04-07T21:20:59.784Z,94174.65
2019-04-07T21:23:41.785Z,94167.20
2019-04-07T21:26:19.712Z,94167.80
2019-04-07T21:29:10.987Z,94178.87
2019-04-07T21:32:01.935Z,94174.29
2019-04-07T21:34:49.361Z,94176.52
2019-04-07T21:37:40.713Z,94176.60
2019-04-07T21:40:37.889Z,94175.00
2019-04-07T21:43:27.998Z,94180.75
2019-04-07T21:46:22.264Z,94180.86
2019-04-07T21:49:09.795Z,94191.27
2019-04-07T21:51:48.585Z,94191.49
2019-04-07T21:54:41.218Z,94199.61
2019-04-07T21:57:36.407Z,94200.31
2019-04-07T22:00:35.497Z,94201.02
2019-04-07T22:03:36.184Z,94200.87
2019-04-07T22:06:29.783Z,94197.76
2019-04-07T22:09:09.885Z,94201.75
2019-04-07T22:11:43.086Z,94203.69
2019-04-07T22:14:12.420Z,94206.50
2019-04-07T22:16:42.847Z,94208.45
2019-04-07T22:19:15.087Z,94209.91
2019-04-07T22:21:44.547Z,94206.58
2019-04-07T22:24:15.171Z,94216.95
2019-04-07T22:26:49.209Z,94218.89
2019-04-07T22:29:16.990Z,94222.20
2019-04-07T22:31:51.421Z,94212.20
2019-04-07T22:34:21.583Z,94218.66
2019-04-07T22:36:51.762Z,94220.00
2019-04-07T22:39:22.620Z,94218.27
2019-04-07T22:41:52.667Z,94208.64
2019-04-07T22:44:23.263Z,94213.11
2019-04-07T22:46:54.385Z,94209.98
2019-04-07T22:49:28.557Z,94215.84
2019-04-07T22:51:56.677Z,94204.29
2019-04-07T22:54:30.800Z,94214.28
2019-04-07T22:57:00.665Z,94209.17
2019-04-07T22:59:30.651Z,94218.59
2019-04-07T23:02:00.610Z,94221.20
2019-04-07T23:04:30.757Z,94223.89
2019-04-07T23:07:00.861Z,94219.47
2019-04-07T23:09:31.426Z,94231.05
2019-04-07T23:12:02.213Z,94228.32
2019-04-07T23:14:33.805Z,94235.00
2019-04-07T23:17:04.058Z,94234.72
2019-04-07T23:19:34.427Z,94230.67
2019-04-07T23:22:05.317Z,94229.95
2019-04-07T23:24:35.311Z,94228.16
2019-04-07T23:27:06.121Z,94222.17
2019-04-07T23:29:36.645Z,94226.31
2019-04-07T23:32:07.410Z,94219.62
2019-04-07T23:34:37.498Z,94221.95
2019-04-07T23:37:08.164Z,94224.47
2019-04-07T23:39:38.149Z,94233.44
2019-04-07T23:42:09.060Z,94240.36
2019-04-07T23:44:39.422Z,94244.84
2019-04-07T23:47:09.598Z,94250.02
2019-04-07T23:49:40.493Z,94258.58
2019-04-07T23:52:11.064Z,94267.69
2019-04-07T23:54:41.868Z,94265.86
2019-04-07T23:57:11.738Z,94268.97
2019-04-07T23:59:42.172Z,94265.05
